Time;durP1;ratioP1;P1;durP2;ratioP2;P2;SDS_P1;SDS_P2;PMS_P1;PMS_P2;Temp;Humidity;BMP_temperature;BMP_pressure;BME280_temperature;BME280_humidity;BME280_pressure;Samples;Min_cycle;Max_cycle;Signal;HPM_P1;HPM_P2
2023/08/22 00:01:11;;;;;;;7.60;5.13;;;;;;;;;;5059946;28;20052;-88
2023/08/22 00:03:37;;;;;;;8.82;5.43;;;;;;;;;;5060263;28;20400;-86
2023/08/22 00:06:03;;;;;;;9.48;5.97;;;;;;;;;;5059807;28;20461;-85
2023/08/22 00:08:29;;;;;;;11.00;6.05;;;;;;;;;;5060130;28;20029;-85
2023/08/22 00:10:55;;;;;;;8.65;6.03;;;;;;;;;;5059913;28;20043;-86
2023/08/22 00:13:21;;;;;;;16.30;6.13;;;;;;;;;;5054976;28;20035;-87
2023/08/22 00:15:47;;;;;;;10.27;5.38;;;;;;;;;;5063434;28;20028;-86
2023/08/22 00:18:13;;;;;;;12.55;5.80;;;;;;;;;;5063328;28;20460;-87
2023/08/22 00:20:39;;;;;;;9.32;5.43;;;;;;;;;;5055399;28;20051;-87
2023/08/22 00:23:05;;;;;;;12.70;6.25;;;;;;;;;;5060824;28;20151;-87
2023/08/22 00:25:31;;;;;;;11.23;5.45;;;;;;;;;;5061289;28;20493;-86
2023/08/22 00:27:57;;;;;;;12.35;6.07;;;;;;;;;;5061730;28;20033;-86
2023/08/22 00:30:23;;;;;;;10.93;5.75;;;;;;;;;;5058467;28;20191;-86
2023/08/22 00:32:49;;;;;;;9.45;5.80;;;;;;;;;;5040272;28;20040;-85
2023/08/22 00:35:15;;;;;;;8.80;6.22;;;;;;;;;;5060785;28;20488;-87
2023/08/22 00:37:41;;;;;;;8.80;5.70;;;;;;;;;;5060717;28;20021;-87
2023/08/22 00:40:08;;;;;;;17.13;6.15;;;;;;;;;;5063542;28;20489;-87
2023/08/22 00:42:34;;;;;;;12.43;5.88;;;;;;;;;;5050031;28;20054;-86
2023/08/22 00:45:00;;;;;;;11.15;5.38;;;;;;;;;;5058989;28;20032;-85
2023/08/22 00:47:26;;;;;;;10.50;6.15;;;;;;;;;;5058994;28;20481;-87
2023/08/22 00:49:52;;;;;;;11.07;6.38;;;;;;;;;;5045172;28;20078;-87
2023/08/22 00:52:18;;;;;;;12.63;6.00;;;;;;;;;;5064098;28;20051;-87
2023/08/22 00:54:46;;;;;;;9.63;5.82;;;;;;;;;;5070163;28;20465;-86
2023/08/22 00:57:12;;;;;;;10.73;6.18;;;;;;;;;;5065154;28;20032;-88
2023/08/22 00:59:38;;;;;;;11.55;5.95;;;;;;;;;;5066204;28;20032;-87
2023/08/22 01:02:04;;;;;;;21.00;6.95;;;;;;;;;;5042947;28;20024;-87
2023/08/22 01:04:30;;;;;;;11.65;6.22;;;;;;;;;;5065106;28;20031;-87
2023/08/22 01:07:00;;;;;;;11.00;5.95;;;;;;;;;;5042920;28;20044;-86
2023/08/22 01:09:35;;;;;;;7.95;5.47;;;;;;;;;;5067898;28;20025;-86
2023/08/22 01:12:04;;;;;;;13.60;5.78;;;;;;;;;;5049826;28;20481;-86
2023/08/22 01:14:31;;;;;;;9.35;5.80;;;;;;;;;;5065086;28;20021;-87
2023/08/22 01:16:57;;;;;;;15.60;5.90;;;;;;;;;;5045028;28;20031;-86
2023/08/22 01:19:23;;;;;;;9.65;5.18;;;;;;;;;;5062037;28;20021;-87
2023/08/22 01:21:52;;;;;;;12.23;5.72;;;;;;;;;;5059856;28;20021;-87
2023/08/22 01:24:19;;;;;;;8.37;5.70;;;;;;;;;;5067292;28;20040;-88
2023/08/22 01:26:45;;;;;;;7.80;5.13;;;;;;;;;;5046973;28;20469;-88
2023/08/22 01:29:13;;;;;;;14.00;5.45;;;;;;;;;;5047666;28;20171;-87
2023/08/22 01:31:50;;;;;;;7.05;4.85;;;;;;;;;;5065456;28;20033;-87
2023/08/22 01:34:20;;;;;;;19.95;5.75;;;;;;;;;;5048452;28;20016;-86
2023/08/22 01:36:46;;;;;;;9.00;5.25;;;;;;;;;;5058825;28;20029;-87
2023/08/22 01:39:14;;;;;;;8.05;5.75;;;;;;;;;;5065751;28;20020;-88
2023/08/22 01:41:40;;;;;;;8.98;5.93;;;;;;;;;;5044567;28;20029;-87
2023/08/22 01:44:06;;;;;;;10.70;5.30;;;;;;;;;;5067085;28;20104;-87
2023/08/22 01:46:32;;;;;;;6.95;4.60;;;;;;;;;;5065586;28;20103;-87
2023/08/22 01:48:58;;;;;;;8.25;5.57;;;;;;;;;;5046716;28;20027;-87
2023/08/22 01:51:24;;;;;;;11.30;5.90;;;;;;;;;;5063729;28;20040;-87
2023/08/22 01:53:50;;;;;;;9.18;5.60;;;;;;;;;;5046996;28;20480;-86
2023/08/22 01:56:16;;;;;;;8.07;5.43;;;;;;;;;;5039929;28;20021;-87
2023/08/22 01:58:42;;;;;;;7.22;4.78;;;;;;;;;;5045489;28;20025;-86
2023/08/22 02:01:12;;;;;;;8.77;5.65;;;;;;;;;;5065168;28;20029;-88
2023/08/22 02:03:38;;;;;;;10.48;5.57;;;;;;;;;;5059842;28;20025;-87
2023/08/22 02:06:04;;;;;;;9.32;5.82;;;;;;;;;;5062700;28;20035;-87
2023/08/22 02:08:30;;;;;;;9.23;5.63;;;;;;;;;;5066827;28;20020;-87
2023/08/22 02:10:56;;;;;;;11.15;6.10;;;;;;;;;;5043176;28;20040;-87
2023/08/22 02:13:22;;;;;;;16.08;5.78;;;;;;;;;;5065336;28;20035;-87
2023/08/22 02:15:48;;;;;;;11.35;5.72;;;;;;;;;;5039696;28;20020;-86
2023/08/22 02:18:15;;;;;;;7.22;5.05;;;;;;;;;;5046533;28;20404;-86
2023/08/22 02:20:42;;;;;;;14.60;5.40;;;;;;;;;;5066261;28;20021;-87
2023/08/22 02:23:08;;;;;;;11.23;6.32;;;;;;;;;;5058736;28;20448;-87
2023/08/22 02:25:35;;;;;;;17.20;6.03;;;;;;;;;;5063453;28;20024;-87
2023/08/22 02:28:02;;;;;;;11.10;5.78;;;;;;;;;;5062695;28;20023;-87
2023/08/22 02:30:28;;;;;;;9.77;5.70;;;;;;;;;;5063036;28;20063;-87
2023/08/22 02:32:54;;;;;;;13.48;5.93;;;;;;;;;;5046706;28;20021;-87
2023/08/22 02:35:20;;;;;;;13.48;5.78;;;;;;;;;;5062520;28;20102;-87
2023/08/22 02:37:46;;;;;;;8.73;5.53;;;;;;;;;;5054208;28;20021;-87
2023/08/22 02:40:12;;;;;;;11.95;5.45;;;;;;;;;;5044374;28;20350;-88
2023/08/22 02:42:38;;;;;;;8.32;4.95;;;;;;;;;;5050662;28;20184;-88
2023/08/22 02:45:05;;;;;;;8.02;5.82;;;;;;;;;;5036572;28;20501;-85
2023/08/22 02:47:31;;;;;;;8.10;5.05;;;;;;;;;;5064086;28;20107;-86
2023/08/22 02:49:58;;;;;;;11.20;5.43;;;;;;;;;;5059861;28;20376;-87
2023/08/22 02:52:24;;;;;;;13.68;5.75;;;;;;;;;;5057636;28;20116;-87
2023/08/22 02:54:50;;;;;;;6.78;4.78;;;;;;;;;;5062945;28;20028;-87
2023/08/22 02:57:16;;;;;;;9.88;6.03;;;;;;;;;;5038916;28;20025;-87
2023/08/22 02:59:42;;;;;;;7.53;5.30;;;;;;;;;;5056824;28;20017;-88
2023/08/22 03:02:08;;;;;;;10.68;5.80;;;;;;;;;;5041682;28;20142;-86
2023/08/22 03:04:37;;;;;;;11.75;5.13;;;;;;;;;;5061784;28;20039;-86
2023/08/22 03:07:03;;;;;;;13.77;5.40;;;;;;;;;;5061269;28;20033;-88
2023/08/22 03:09:30;;;;;;;7.80;5.50;;;;;;;;;;5045838;28;20021;-87
2023/08/22 03:11:56;;;;;;;8.43;5.07;;;;;;;;;;5041295;28;20044;-86
2023/08/22 03:14:22;;;;;;;12.95;6.20;;;;;;;;;;5059297;28;20025;-87
2023/08/22 03:16:48;;;;;;;10.77;5.25;;;;;;;;;;5059076;28;20500;-87
2023/08/22 03:19:14;;;;;;;7.85;5.70;;;;;;;;;;5054253;28;20020;-87
2023/08/22 03:21:40;;;;;;;10.57;5.53;;;;;;;;;;5065517;28;20031;-88
2023/08/22 03:24:06;;;;;;;9.93;5.22;;;;;;;;;;5067314;28;20035;-87
2023/08/22 03:26:32;;;;;;;11.05;5.43;;;;;;;;;;5042095;28;20013;-88
2023/08/22 03:28:58;;;;;;;7.75;5.28;;;;;;;;;;5043920;28;20552;-87
2023/08/22 03:31:26;;;;;;;12.50;5.95;;;;;;;;;;5056252;28;20028;-87
2023/08/22 03:33:52;;;;;;;10.98;5.75;;;;;;;;;;5058340;28;20064;-87
2023/08/22 03:36:18;;;;;;;10.85;5.55;;;;;;;;;;5051043;28;20032;-88
2023/08/22 03:38:46;;;;;;;8.98;4.95;;;;;;;;;;5060551;28;20288;-86
2023/08/22 03:41:12;;;;;;;7.28;4.70;;;;;;;;;;5056518;28;20092;-88
2023/08/22 03:43:38;;;;;;;10.30;5.10;;;;;;;;;;5054066;28;20444;-88
2023/08/22 03:46:04;;;;;;;9.13;5.78;;;;;;;;;;5044831;28;20039;-87
2023/08/22 03:48:30;;;;;;;7.40;5.30;;;;;;;;;;5042137;28;20111;-87
2023/08/22 03:50:56;;;;;;;8.82;5.35;;;;;;;;;;5061977;28;20063;-86
2023/08/22 03:53:23;;;;;;;8.05;5.53;;;;;;;;;;5037003;28;20503;-87
2023/08/22 03:55:49;;;;;;;10.80;6.28;;;;;;;;;;5064653;28;20468;-87
2023/08/22 03:58:15;;;;;;;12.05;5.45;;;;;;;;;;5064943;28;20024;-87
2023/08/22 04:00:41;;;;;;;14.30;5.68;;;;;;;;;;5067587;28;20078;-86
2023/08/22 04:03:07;;;;;;;6.93;4.90;;;;;;;;;;5063330;28;20025;-86
2023/08/22 04:05:33;;;;;;;9.07;5.25;;;;;;;;;;5045763;28;20027;-88
2023/08/22 04:07:59;;;;;;;11.05;5.75;;;;;;;;;;5045823;28;20111;-86
2023/08/22 04:10:25;;;;;;;9.35;5.10;;;;;;;;;;5046348;28;20024;-87
2023/08/22 04:12:51;;;;;;;8.15;5.45;;;;;;;;;;5050886;28;20029;-87
2023/08/22 04:15:19;;;;;;;13.60;6.28;;;;;;;;;;5060042;28;20020;-88
2023/08/22 04:17:45;;;;;;;17.55;5.78;;;;;;;;;;5062886;28;20045;-88
2023/08/22 04:20:11;;;;;;;9.15;5.45;;;;;;;;;;5059730;28;20020;-87
2023/08/22 04:22:41;;;;;;;12.27;5.60;;;;;;;;;;5057849;28;20016;-88
2023/08/22 04:25:07;;;;;;;12.65;5.40;;;;;;;;;;5060244;28;20023;-88
2023/08/22 04:27:33;;;;;;;9.23;5.63;;;;;;;;;;5056178;28;20032;-87
2023/08/22 04:30:00;;;;;;;13.63;5.97;;;;;;;;;;5060328;28;20534;-87
2023/08/22 04:32:26;;;;;;;10.13;5.68;;;;;;;;;;5045513;28;20025;-88
2023/08/22 04:34:52;;;;;;;11.38;6.10;;;;;;;;;;5054311;28;20024;-88
2023/08/22 04:37:18;;;;;;;17.17;6.20;;;;;;;;;;5060448;28;20036;-87
2023/08/22 04:39:44;;;;;;;11.65;5.78;;;;;;;;;;5058589;28;20021;-88
2023/08/22 04:42:10;;;;;;;13.90;5.75;;;;;;;;;;5057866;28;20064;-88
2023/08/22 04:44:36;;;;;;;9.95;5.78;;;;;;;;;;5065891;28;20024;-87
2023/08/22 04:47:02;;;;;;;9.13;5.15;;;;;;;;;;5057695;28;20028;-88
2023/08/22 04:49:28;;;;;;;8.73;5.70;;;;;;;;;;5056822;28;20032;-88
2023/08/22 04:51:54;;;;;;;11.20;5.40;;;;;;;;;;5063835;28;20393;-88
2023/08/22 04:54:20;;;;;;;9.52;5.43;;;;;;;;;;5054880;28;20017;-87
2023/08/22 04:56:46;;;;;;;11.82;5.38;;;;;;;;;;5060798;28;20021;-87
2023/08/22 04:59:12;;;;;;;13.05;5.85;;;;;;;;;;5063320;28;20028;-87
2023/08/22 05:01:38;;;;;;;8.43;5.32;;;;;;;;;;5061975;28;20123;-88
2023/08/22 05:04:04;;;;;;;11.13;5.38;;;;;;;;;;5059914;28;20162;-87
2023/08/22 05:06:30;;;;;;;10.18;5.55;;;;;;;;;;5044428;28;20028;-88
2023/08/22 05:08:59;;;;;;;10.05;5.75;;;;;;;;;;5060612;28;20092;-88
2023/08/22 05:11:25;;;;;;;12.27;6.50;;;;;;;;;;5062931;28;20035;-88
2023/08/22 05:13:51;;;;;;;15.32;6.05;;;;;;;;;;5061719;28;20139;-87
2023/08/22 05:16:17;;;;;;;11.52;6.15;;;;;;;;;;5053572;28;20021;-87
2023/08/22 05:18:43;;;;;;;9.27;6.22;;;;;;;;;;5065196;28;20047;-88
2023/08/22 05:21:09;;;;;;;15.02;6.80;;;;;;;;;;5060634;28;20025;-87
2023/08/22 05:23:35;;;;;;;11.25;5.93;;;;;;;;;;5058689;28;20064;-91
2023/08/22 05:26:04;;;;;;;11.25;6.13;;;;;;;;;;5042134;28;20024;-91
2023/08/22 05:28:30;;;;;;;8.13;5.10;;;;;;;;;;5043185;28;20021;-88
2023/08/22 05:30:59;;;;;;;14.30;6.18;;;;;;;;;;5041560;28;20076;-92
2023/08/22 05:33:28;;;;;;;8.30;5.50;;;;;;;;;;5047720;28;20016;-89
2023/08/22 05:35:55;;;;;;;10.15;5.97;;;;;;;;;;5062954;28;20052;-89
2023/08/22 05:38:24;;;;;;;8.02;4.75;;;;;;;;;;5061247;28;20021;-88
2023/08/22 05:40:50;;;;;;;9.53;4.53;;;;;;;;;;5056726;28;20020;-87
2023/08/22 05:43:16;;;;;;;15.15;5.40;;;;;;;;;;5058690;28;20650;-87
2023/08/22 05:45:42;;;;;;;8.45;5.20;;;;;;;;;;5050620;28;20029;-89
2023/08/22 05:48:08;;;;;;;9.55;4.88;;;;;;;;;;5047958;28;20408;-89
2023/08/22 05:50:34;;;;;;;15.65;5.53;;;;;;;;;;5045439;28;20025;-89
2023/08/22 05:53:00;;;;;;;10.30;4.97;;;;;;;;;;5067833;28;20032;-88
2023/08/22 05:55:26;;;;;;;7.57;5.10;;;;;;;;;;5048457;28;20025;-89
2023/08/22 05:57:52;;;;;;;12.43;5.45;;;;;;;;;;5051373;28;20029;-88
2023/08/22 06:00:18;;;;;;;9.18;5.35;;;;;;;;;;5045600;28;20025;-89
2023/08/22 06:02:44;;;;;;;8.40;4.63;;;;;;;;;;5043950;28;20025;-88
2023/08/22 06:05:10;;;;;;;8.05;4.80;;;;;;;;;;5065517;28;20024;-88
2023/08/22 06:07:36;;;;;;;11.98;4.78;;;;;;;;;;5052681;28;20455;-87
2023/08/22 06:10:02;;;;;;;8.70;5.15;;;;;;;;;;5063361;28;20694;-88
2023/08/22 06:12:28;;;;;;;14.05;5.55;;;;;;;;;;5064482;28;20124;-89
2023/08/22 06:14:54;;;;;;;10.93;5.22;;;;;;;;;;5064641;28;20107;-88
2023/08/22 06:17:20;;;;;;;9.93;4.78;;;;;;;;;;5039866;28;20075;-89
2023/08/22 06:19:48;;;;;;;15.73;5.50;;;;;;;;;;5048380;28;20013;-90
2023/08/22 06:22:14;;;;;;;9.27;5.53;;;;;;;;;;5050326;28;20024;-87
2023/08/22 06:24:40;;;;;;;6.65;4.60;;;;;;;;;;5054496;28;20171;-88
2023/08/22 06:27:06;;;;;;;11.90;5.20;;;;;;;;;;5050887;28;20162;-88
2023/08/22 06:29:33;;;;;;;10.00;5.28;;;;;;;;;;5070670;28;20025;-91
2023/08/22 06:32:02;;;;;;;11.35;5.05;;;;;;;;;;5064270;28;20122;-87
2023/08/22 06:34:30;;;;;;;8.68;4.57;;;;;;;;;;5066191;28;20025;-88
2023/08/22 06:36:56;;;;;;;12.27;4.65;;;;;;;;;;5067323;28;20031;-88
2023/08/22 06:39:22;;;;;;;13.27;5.00;;;;;;;;;;5047748;28;20025;-88
2023/08/22 06:41:48;;;;;;;11.38;4.82;;;;;;;;;;5045628;28;20025;-88
2023/08/22 06:44:14;;;;;;;8.93;5.32;;;;;;;;;;5054743;28;20082;-88
2023/08/22 06:46:41;;;;;;;11.27;5.20;;;;;;;;;;5048013;28;20029;-88
2023/08/22 06:49:07;;;;;;;8.05;5.05;;;;;;;;;;5048203;28;20086;-89
2023/08/22 06:51:33;;;;;;;9.98;5.25;;;;;;;;;;5053741;28;20037;-88
2023/08/22 06:53:59;;;;;;;7.15;4.88;;;;;;;;;;5056366;28;20029;-88
2023/08/22 06:56:26;;;;;;;11.13;4.57;;;;;;;;;;5057133;28;20550;-88
2023/08/22 06:58:52;;;;;;;9.27;4.43;;;;;;;;;;5045480;28;20116;-88
2023/08/22 07:01:19;;;;;;;9.60;5.05;;;;;;;;;;5069667;28;20094;-89
2023/08/22 07:03:45;;;;;;;7.45;4.70;;;;;;;;;;5054467;28;20025;-89
2023/08/22 07:06:11;;;;;;;9.18;5.13;;;;;;;;;;5068691;28;20024;-88
2023/08/22 07:08:37;;;;;;;9.57;4.57;;;;;;;;;;5047228;28;20424;-88
2023/08/22 07:11:04;;;;;;;10.07;5.20;;;;;;;;;;5047771;28;20033;-89
2023/08/22 07:13:30;;;;;;;12.40;4.63;;;;;;;;;;5056593;28;20032;-89
2023/08/22 07:15:56;;;;;;;8.90;4.20;;;;;;;;;;5066732;28;20080;-89
2023/08/22 07:18:22;;;;;;;5.78;4.18;;;;;;;;;;5056655;28;20480;-89
2023/08/22 07:20:51;;;;;;;10.20;4.68;;;;;;;;;;5056686;28;20509;-90
2023/08/22 07:23:18;;;;;;;9.40;4.57;;;;;;;;;;5056996;28;20032;-88
2023/08/22 07:25:47;;;;;;;8.25;4.57;;;;;;;;;;5044439;28;20032;-89
2023/08/22 07:28:13;;;;;;;7.05;4.90;;;;;;;;;;5047748;28;20075;-89
2023/08/22 07:30:39;;;;;;;10.15;5.07;;;;;;;;;;5065018;28;20021;-89
2023/08/22 07:33:06;;;;;;;11.18;4.82;;;;;;;;;;5067439;28;20464;-89
2023/08/22 07:35:34;;;;;;;10.35;4.60;;;;;;;;;;5047481;28;20468;-89
2023/08/22 07:38:00;;;;;;;16.65;5.90;;;;;;;;;;5065029;28;20104;-90
2023/08/22 07:40:26;;;;;;;20.35;5.13;;;;;;;;;;5045041;28;20729;-88
2023/08/22 07:42:52;;;;;;;8.45;5.10;;;;;;;;;;5047994;28;20115;-88
2023/08/22 07:45:18;;;;;;;11.10;5.45;;;;;;;;;;5048443;28;20112;-87
2023/08/22 07:47:44;;;;;;;8.55;4.72;;;;;;;;;;5062882;28;20440;-88
2023/08/22 07:50:10;;;;;;;9.70;4.70;;;;;;;;;;5047937;28;20020;-89
2023/08/22 07:52:36;;;;;;;11.85;5.07;;;;;;;;;;5046562;28;20032;-88
2023/08/22 07:55:02;;;;;;;11.40;5.65;;;;;;;;;;5045958;28;20057;-90
2023/08/22 07:57:29;;;;;;;8.77;4.80;;;;;;;;;;5045981;28;20039;-89
2023/08/22 07:59:55;;;;;;;12.43;4.65;;;;;;;;;;5044217;28;20032;-89
2023/08/22 08:02:21;;;;;;;11.35;5.22;;;;;;;;;;5048471;28;20070;-90
2023/08/22 08:04:47;;;;;;;16.90;5.82;;;;;;;;;;5044489;28;20047;-90
2023/08/22 08:07:14;;;;;;;10.73;5.15;;;;;;;;;;5045850;28;20025;-91
2023/08/22 08:09:40;;;;;;;8.95;4.60;;;;;;;;;;5048434;28;20025;-90
2023/08/22 08:12:06;;;;;;;7.03;4.53;;;;;;;;;;5053319;28;20040;-90
2023/08/22 08:14:32;;;;;;;9.73;5.18;;;;;;;;;;5046108;28;20047;-90
2023/08/22 08:16:58;;;;;;;15.50;5.35;;;;;;;;;;5047686;28;20452;-90
2023/08/22 08:19:25;;;;;;;9.02;5.32;;;;;;;;;;5045958;28;20028;-89
2023/08/22 08:21:54;;;;;;;6.55;4.60;;;;;;;;;;5045826;28;20051;-89
2023/08/22 08:24:20;;;;;;;8.93;5.43;;;;;;;;;;5045069;28;20029;-89
2023/08/22 08:26:46;;;;;;;7.53;4.65;;;;;;;;;;5047142;28;20449;-88
2023/08/22 08:29:12;;;;;;;7.80;4.55;;;;;;;;;;5050834;28;20053;-88
2023/08/22 08:31:38;;;;;;;13.63;5.07;;;;;;;;;;5046318;28;20031;-90
2023/08/22 08:34:04;;;;;;;12.77;5.35;;;;;;;;;;5043167;28;20735;-90
2023/08/22 08:36:30;;;;;;;11.02;5.35;;;;;;;;;;5047753;28;20177;-91
2023/08/22 08:38:56;;;;;;;6.85;5.07;;;;;;;;;;5049409;28;20027;-90
2023/08/22 08:41:23;;;;;;;8.35;5.63;;;;;;;;;;5052709;28;20020;-90
2023/08/22 08:43:49;;;;;;;8.93;5.28;;;;;;;;;;5047247;28;20091;-90
2023/08/22 08:46:16;;;;;;;9.32;5.47;;;;;;;;;;5048817;28;20028;-91
2023/08/22 08:48:43;;;;;;;12.57;4.95;;;;;;;;;;5043999;28;20028;-91
2023/08/22 08:51:09;;;;;;;6.93;4.68;;;;;;;;;;5045668;28;20064;-91
2023/08/22 08:53:37;;;;;;;11.63;5.18;;;;;;;;;;5052185;28;20025;-92
2023/08/22 08:56:09;;;;;;;7.43;5.20;;;;;;;;;;5045196;28;20021;-91
2023/08/22 08:58:36;;;;;;;11.88;4.75;;;;;;;;;;5054806;28;20078;-90
2023/08/22 09:01:02;;;;;;;7.80;5.30;;;;;;;;;;5046464;28;20036;-89
2023/08/22 09:03:29;;;;;;;12.60;5.18;;;;;;;;;;5043048;28;20763;-89
2023/08/22 09:05:55;;;;;;;9.23;5.28;;;;;;;;;;5063600;28;20120;-88
2023/08/22 09:08:23;;;;;;;8.00;5.00;;;;;;;;;;5048324;28;20048;-87
2023/08/22 09:10:50;;;;;;;9.45;4.97;;;;;;;;;;5050572;28;20146;-86
2023/08/22 09:13:17;;;;;;;9.70;5.32;;;;;;;;;;5066159;28;20029;-87
2023/08/22 09:15:43;;;;;;;7.82;5.28;;;;;;;;;;5071350;28;20080;-88
2023/08/22 09:18:13;;;;;;;5.50;4.38;;;;;;;;;;5047932;28;20401;-86
2023/08/22 09:20:45;;;;;;;9.45;5.50;;;;;;;;;;5066842;28;20373;-88
2023/08/22 09:23:19;;;;;;;11.70;4.88;;;;;;;;;;5067478;28;20032;-87
2023/08/22 09:25:45;;;;;;;7.57;4.75;;;;;;;;;;5049386;28;20082;-85
2023/08/22 09:28:11;;;;;;;14.82;5.38;;;;;;;;;;5072891;28;20028;-86
2023/08/22 09:30:37;;;;;;;9.80;4.40;;;;;;;;;;5068454;28;20025;-86
2023/08/22 09:33:03;;;;;;;13.85;5.40;;;;;;;;;;5068389;28;20040;-86
2023/08/22 09:35:33;;;;;;;8.82;4.97;;;;;;;;;;5058566;28;20392;-86
2023/08/22 09:40:56;;;;;;;10.25;5.45;;;;;;;;;;5069333;28;20315;-87
2023/08/22 09:43:42;;;;;;;11.82;5.18;;;;;;;;;;5051703;28;20111;-85
2023/08/22 09:55:31;;;;;;;9.65;5.38;;;;;;;;;;5070591;28;20047;-86
2023/08/22 09:57:57;;;;;;;7.93;4.90;;;;;;;;;;5058475;28;20037;-86
2023/08/22 10:00:26;;;;;;;9.98;4.65;;;;;;;;;;5066857;28;20119;-86
2023/08/22 10:02:55;;;;;;;10.43;5.07;;;;;;;;;;5061824;28;20029;-86
2023/08/22 10:05:21;;;;;;;8.53;4.70;;;;;;;;;;5052971;28;20017;-86
2023/08/22 10:07:47;;;;;;;8.60;4.47;;;;;;;;;;5067182;28;20039;-86
2023/08/22 10:10:14;;;;;;;8.77;5.32;;;;;;;;;;5065422;28;20024;-86
2023/08/22 10:12:40;;;;;;;8.18;4.13;;;;;;;;;;5065533;28;20028;-86
2023/08/22 10:15:07;;;;;;;9.95;4.30;;;;;;;;;;5065720;28;20025;-87
2023/08/22 10:17:33;;;;;;;11.98;4.90;;;;;;;;;;5066049;28;20016;-86
2023/08/22 10:20:06;;;;;;;11.63;4.78;;;;;;;;;;5063632;28;20497;-86
2023/08/22 10:22:33;;;;;;;8.45;4.63;;;;;;;;;;5057362;28;20028;-87
2023/08/22 10:25:04;;;;;;;8.68;4.10;;;;;;;;;;5063746;28;20029;-86
2023/08/22 10:27:36;;;;;;;7.20;4.18;;;;;;;;;;5062973;28;20025;-88
2023/08/22 10:30:15;;;;;;;6.70;4.53;;;;;;;;;;5064337;28;20029;-86
2023/08/22 10:32:42;;;;;;;9.25;4.07;;;;;;;;;;5064235;28;20032;-87
2023/08/22 10:35:13;;;;;;;6.68;4.55;;;;;;;;;;5065336;28;20064;-86
2023/08/22 10:38:06;;;;;;;7.60;4.32;;;;;;;;;;5066758;28;20457;-86
2023/08/22 10:40:33;;;;;;;7.15;5.55;;;;;;;;;;5065373;28;20094;-87
2023/08/22 10:43:11;;;;;;;6.47;4.50;;;;;;;;;;5062470;28;20044;-87
2023/08/22 10:45:41;;;;;;;14.63;4.43;;;;;;;;;;5066464;28;20032;-86
2023/08/22 10:48:10;;;;;;;10.15;4.32;;;;;;;;;;5047188;28;20108;-85
2023/08/22 10:50:36;;;;;;;9.70;4.63;;;;;;;;;;5066239;28;20040;-86
2023/08/22 10:53:21;;;;;;;13.18;5.00;;;;;;;;;;5047373;28;20023;-87
2023/08/22 10:55:49;;;;;;;9.20;5.78;;;;;;;;;;5068015;28;20024;-86
2023/08/22 10:58:37;;;;;;;5.82;4.47;;;;;;;;;;5066176;28;20025;-88
2023/08/22 11:01:06;;;;;;;5.50;4.07;;;;;;;;;;5066295;28;20036;-86
2023/08/22 11:03:33;;;;;;;7.60;3.90;;;;;;;;;;5065270;28;20037;-85
2023/08/22 11:06:00;;;;;;;5.22;4.07;;;;;;;;;;5065507;28;20017;-87
2023/08/22 11:08:26;;;;;;;11.77;3.72;;;;;;;;;;5049100;28;20025;-87
2023/08/22 11:10:54;;;;;;;7.60;3.85;;;;;;;;;;5026445;28;20092;-87
2023/08/22 11:13:21;;;;;;;6.78;4.07;;;;;;;;;;5010948;28;20045;-87
2023/08/22 11:15:50;;;;;;;7.57;4.25;;;;;;;;;;4991663;28;20131;-85
2023/08/22 11:18:19;;;;;;;6.75;3.95;;;;;;;;;;4989500;28;20038;-87
2023/08/22 11:20:52;;;;;;;5.45;4.05;;;;;;;;;;4988323;28;20026;-86
2023/08/22 11:23:18;;;;;;;5.60;3.58;;;;;;;;;;4976089;28;20034;-86
2023/08/22 11:25:45;;;;;;;6.40;4.07;;;;;;;;;;4984441;28;20038;-87
2023/08/22 11:28:11;;;;;;;8.30;4.43;;;;;;;;;;4983966;28;20122;-85
2023/08/22 11:30:37;;;;;;;5.28;3.03;;;;;;;;;;4976039;28;20172;-86
2023/08/22 11:33:03;;;;;;;5.30;3.17;;;;;;;;;;4983903;28;20190;-86
2023/08/22 11:35:31;;;;;;;6.50;4.32;;;;;;;;;;4983800;28;20069;-86
2023/08/22 11:37:58;;;;;;;5.85;3.95;;;;;;;;;;4992009;28;20030;-86
2023/08/22 11:40:30;;;;;;;12.07;3.72;;;;;;;;;;4980294;28;20043;-87
2023/08/22 11:42:58;;;;;;;7.78;3.53;;;;;;;;;;5008870;28;20034;-87
2023/08/22 11:45:25;;;;;;;8.02;4.32;;;;;;;;;;5015737;28;20121;-86
2023/08/22 11:47:56;;;;;;;7.68;4.00;;;;;;;;;;5060912;28;20029;-86
2023/08/22 11:50:27;;;;;;;6.57;3.30;;;;;;;;;;5063895;28;20079;-85
2023/08/22 11:52:56;;;;;;;4.95;3.78;;;;;;;;;;5065008;28;20384;-86
2023/08/22 11:55:27;;;;;;;7.35;4.35;;;;;;;;;;5045994;28;20045;-86
2023/08/22 11:58:04;;;;;;;3.67;3.20;;;;;;;;;;5062306;28;20035;-85
2023/08/22 12:00:32;;;;;;;7.50;3.65;;;;;;;;;;5066968;28;20038;-87
2023/08/22 12:03:05;;;;;;;4.90;2.95;;;;;;;;;;5065350;28;20087;-87
2023/08/22 12:05:50;;;;;;;5.40;3.58;;;;;;;;;;5061619;28;20036;-87
2023/08/22 12:08:28;;;;;;;3.47;2.97;;;;;;;;;;5045346;28;20405;-85
2023/08/22 12:10:54;;;;;;;4.45;3.28;;;;;;;;;;5045077;28;20040;-89
2023/08/22 12:13:21;;;;;;;4.30;3.25;;;;;;;;;;5046946;28;20021;-87
2023/08/22 12:15:48;;;;;;;4.75;3.20;;;;;;;;;;5044582;28;20473;-88
2023/08/22 12:18:14;;;;;;;4.88;3.15;;;;;;;;;;5045449;28;20021;-89
2023/08/22 12:20:41;;;;;;;6.20;2.80;;;;;;;;;;5046790;28;20119;-89
2023/08/22 12:23:11;;;;;;;6.97;3.42;;;;;;;;;;5044340;28;20532;-83
2023/08/22 12:25:39;;;;;;;10.05;3.10;;;;;;;;;;5045964;28;20431;-86
2023/08/22 12:28:06;;;;;;;6.10;2.80;;;;;;;;;;5064548;28;20538;-87
2023/08/22 12:30:35;;;;;;;4.95;3.05;;;;;;;;;;5044044;28;20505;-90
2023/08/22 12:33:05;;;;;;;8.23;3.42;;;;;;;;;;5045155;28;20029;-88
2023/08/22 12:35:31;;;;;;;;;;;;;;;;;;5050534;28;20063;-86
2023/08/22 12:37:57;;;;;;;4.90;3.05;;;;;;;;;;5060685;28;20348;-88
2023/08/22 12:40:23;;;;;;;12.07;2.95;;;;;;;;;;5045746;28;20021;-87
2023/08/22 12:42:49;;;;;;;4.18;3.20;;;;;;;;;;5044146;28;20037;-88
2023/08/22 12:45:16;;;;;;;7.32;3.30;;;;;;;;;;5046095;28;20107;-89
2023/08/22 12:47:43;;;;;;;4.18;3.05;;;;;;;;;;5045804;28;20017;-86
2023/08/22 12:50:12;;;;;;;5.43;3.05;;;;;;;;;;5044830;28;20103;-86
2023/08/22 12:52:39;;;;;;;4.43;2.75;;;;;;;;;;5061483;28;20048;-87
2023/08/22 12:55:08;;;;;;;6.00;3.08;;;;;;;;;;5062304;28;20472;-90
2023/08/22 12:57:39;;;;;;;10.80;3.17;;;;;;;;;;5061620;28;20095;-86
2023/08/22 13:00:08;;;;;;;7.65;2.80;;;;;;;;;;5061203;28;20263;-85
2023/08/22 13:02:35;;;;;;;4.85;3.33;;;;;;;;;;5064571;28;20032;-87
2023/08/22 13:05:02;;;;;;;7.10;3.15;;;;;;;;;;5068719;28;20040;-86
2023/08/22 13:07:28;;;;;;;6.32;3.05;;;;;;;;;;5043532;28;20052;-89
2023/08/22 13:09:57;;;;;;;3.88;3.00;;;;;;;;;;5051739;28;20040;-85
2023/08/22 13:12:23;;;;;;;5.72;3.25;;;;;;;;;;5045529;28;20041;-88
2023/08/22 13:14:49;;;;;;;4.78;2.97;;;;;;;;;;5044866;28;20025;-88
2023/08/22 13:17:20;;;;;;;10.73;3.17;;;;;;;;;;5042856;28;20025;-84
2023/08/22 13:19:48;;;;;;;6.32;3.75;;;;;;;;;;5049192;28;20043;-86
2023/08/22 13:22:14;;;;;;;7.18;2.90;;;;;;;;;;5052224;28;20091;-86
2023/08/22 13:24:40;;;;;;;9.10;3.28;;;;;;;;;;5044937;28;20032;-86
2023/08/22 13:27:08;;;;;;;6.25;3.00;;;;;;;;;;5047021;28;20504;-83
2023/08/22 13:29:34;;;;;;;8.00;3.03;;;;;;;;;;5044885;28;20031;-88
2023/08/22 13:32:37;;;;;;;8.13;3.35;;;;;;;;;;5045219;28;20115;-86
2023/08/22 13:38:16;;;;;;;5.63;3.10;;;;;;;;;;5069416;28;20123;-89
2023/08/22 13:40:45;;;;;;;4.97;2.83;;;;;;;;;;5066463;28;20087;-86
2023/08/22 13:43:11;;;;;;;5.63;3.17;;;;;;;;;;5065122;28;20316;-87
2023/08/22 13:45:37;;;;;;;5.30;3.00;;;;;;;;;;5065452;28;20025;-86
2023/08/22 13:48:03;;;;;;;4.70;3.72;;;;;;;;;;5046341;28;20025;-85
2023/08/22 13:50:30;;;;;;;4.90;3.10;;;;;;;;;;5064594;28;20044;-88
2023/08/22 13:52:56;;;;;;;7.55;3.38;;;;;;;;;;5044771;28;20487;-87
2023/08/22 13:55:22;;;;;;;3.35;2.88;;;;;;;;;;5046877;28;20028;-85
2023/08/22 13:57:48;;;;;;;6.25;3.42;;;;;;;;;;5065554;28;20032;-88
2023/08/22 14:00:14;;;;;;;8.80;3.22;;;;;;;;;;5067337;28;20456;-85
2023/08/22 14:02:40;;;;;;;3.65;2.42;;;;;;;;;;5048697;28;20025;-85
2023/08/22 14:05:06;;;;;;;5.07;3.40;;;;;;;;;;5051577;28;20068;-89
2023/08/22 14:07:32;;;;;;;8.35;3.53;;;;;;;;;;5066479;28;20037;-84
2023/08/22 14:09:58;;;;;;;5.70;2.65;;;;;;;;;;5063310;28;20036;-86
2023/08/22 14:12:24;;;;;;;4.30;3.03;;;;;;;;;;5064498;28;20020;-88
2023/08/22 14:14:50;;;;;;;5.68;2.78;;;;;;;;;;5069299;28;20035;-88
2023/08/22 14:17:19;;;;;;;3.83;2.80;;;;;;;;;;5065607;28;20461;-85
2023/08/22 14:19:45;;;;;;;4.88;3.55;;;;;;;;;;5049002;28;20051;-87
2023/08/22 14:22:11;;;;;;;5.18;3.35;;;;;;;;;;5068326;28;20021;-86
2023/08/22 14:24:37;;;;;;;3.53;2.88;;;;;;;;;;5067439;28;20029;-87
2023/08/22 14:27:03;;;;;;;5.07;3.00;;;;;;;;;;5067221;28;20013;-86
2023/08/22 14:29:29;;;;;;;9.20;3.30;;;;;;;;;;5048686;28;20028;-86
2023/08/22 14:31:55;;;;;;;10.88;3.28;;;;;;;;;;5064017;28;20083;-86
2023/08/22 14:34:21;;;;;;;11.80;2.88;;;;;;;;;;5066837;28;20016;-85
2023/08/22 14:36:47;;;;;;;9.07;3.17;;;;;;;;;;5046573;28;20032;-86
2023/08/22 14:39:13;;;;;;;7.03;3.38;;;;;;;;;;5066475;28;20017;-86
2023/08/22 14:41:40;;;;;;;6.90;3.08;;;;;;;;;;5064116;28;20384;-87
2023/08/22 14:44:06;;;;;;;10.18;3.63;;;;;;;;;;5049240;28;20017;-85
2023/08/22 14:46:32;;;;;;;3.25;2.50;;;;;;;;;;5066832;28;20043;-86
2023/08/22 14:48:58;;;;;;;3.92;2.90;;;;;;;;;;5046163;28;20020;-85
2023/08/22 14:51:24;;;;;;;8.85;3.50;;;;;;;;;;5057998;28;20033;-85
2023/08/22 14:53:50;;;;;;;10.63;3.53;;;;;;;;;;5056652;28;20429;-86